sensor_id;sensor_type;location;lat;lon;timestamp;P1;durP1;ratioP1;P2;durP2;ratioP2
12871;SDS011;6504;53.766;9.626;2023-09-08T00:01:39;8.83;;;8.10;;
12871;SDS011;6504;53.766;9.626;2023-09-08T00:04:07;8.30;;;7.60;;
12871;SDS011;6504;53.766;9.626;2023-09-08T00:06:37;9.50;;;8.43;;
12871;SDS011;6504;53.766;9.626;2023-09-08T00:09:05;8.27;;;7.40;;
12871;SDS011;6504;53.766;9.626;2023-09-08T00:11:33;8.00;;;7.33;;
12871;SDS011;6504;53.766;9.626;2023-09-08T00:14:01;8.03;;;7.23;;
12871;SDS011;6504;53.766;9.626;2023-09-08T00:16:29;8.20;;;7.40;;
12871;SDS011;6504;53.766;9.626;2023-09-08T00:18:58;7.83;;;7.23;;
12871;SDS011;6504;53.766;9.626;2023-09-08T00:21:26;7.87;;;7.17;;
12871;SDS011;6504;53.766;9.626;2023-09-08T00:23:55;8.20;;;7.37;;
12871;SDS011;6504;53.766;9.626;2023-09-08T00:26:24;7.80;;;7.03;;
12871;SDS011;6504;53.766;9.626;2023-09-08T00:28:52;8.03;;;7.43;;
12871;SDS011;6504;53.766;9.626;2023-09-08T00:31:20;7.77;;;6.97;;
12871;SDS011;6504;53.766;9.626;2023-09-08T00:33:48;8.17;;;7.47;;
12871;SDS011;6504;53.766;9.626;2023-09-08T00:36:16;8.13;;;7.33;;
12871;SDS011;6504;53.766;9.626;2023-09-08T00:38:45;8.43;;;6.93;;
12871;SDS011;6504;53.766;9.626;2023-09-08T00:41:14;7.80;;;7.10;;
12871;SDS011;6504;53.766;9.626;2023-09-08T00:43:42;8.20;;;7.50;;
12871;SDS011;6504;53.766;9.626;2023-09-08T00:46:10;8.27;;;7.57;;
12871;SDS011;6504;53.766;9.626;2023-09-08T00:48:39;7.33;;;6.73;;
12871;SDS011;6504;53.766;9.626;2023-09-08T00:51:07;8.00;;;7.20;;
12871;SDS011;6504;53.766;9.626;2023-09-08T00:53:36;8.00;;;7.20;;
12871;SDS011;6504;53.766;9.626;2023-09-08T00:56:04;8.37;;;7.50;;
12871;SDS011;6504;53.766;9.626;2023-09-08T00:58:34;8.50;;;7.70;;
12871;SDS011;6504;53.766;9.626;2023-09-08T01:01:02;7.43;;;6.80;;
12871;SDS011;6504;53.766;9.626;2023-09-08T01:03:32;7.67;;;7.00;;
12871;SDS011;6504;53.766;9.626;2023-09-08T01:06:00;7.47;;;6.77;;
12871;SDS011;6504;53.766;9.626;2023-09-08T01:08:29;7.37;;;6.73;;
12871;SDS011;6504;53.766;9.626;2023-09-08T01:10:58;7.87;;;6.97;;
12871;SDS011;6504;53.766;9.626;2023-09-08T01:13:26;7.47;;;6.87;;
12871;SDS011;6504;53.766;9.626;2023-09-08T01:15:56;7.17;;;6.60;;
12871;SDS011;6504;53.766;9.626;2023-09-08T01:18:24;7.37;;;6.67;;
12871;SDS011;6504;53.766;9.626;2023-09-08T01:20:57;7.67;;;6.97;;
12871;SDS011;6504;53.766;9.626;2023-09-08T01:23:52;8.07;;;7.27;;
12871;SDS011;6504;53.766;9.626;2023-09-08T01:26:29;7.60;;;7.00;;
12871;SDS011;6504;53.766;9.626;2023-09-08T01:28:58;7.33;;;6.63;;
12871;SDS011;6504;53.766;9.626;2023-09-08T01:31:28;7.00;;;6.30;;
12871;SDS011;6504;53.766;9.626;2023-09-08T01:33:57;7.30;;;6.70;;
12871;SDS011;6504;53.766;9.626;2023-09-08T01:36:25;6.80;;;6.20;;
12871;SDS011;6504;53.766;9.626;2023-09-08T01:38:54;7.30;;;6.70;;
12871;SDS011;6504;53.766;9.626;2023-09-08T01:41:22;7.23;;;6.60;;
12871;SDS011;6504;53.766;9.626;2023-09-08T01:43:51;7.27;;;6.60;;
12871;SDS011;6504;53.766;9.626;2023-09-08T01:46:20;7.50;;;6.80;;
12871;SDS011;6504;53.766;9.626;2023-09-08T01:48:48;7.40;;;6.70;;
12871;SDS011;6504;53.766;9.626;2023-09-08T01:51:16;7.03;;;6.33;;
12871;SDS011;6504;53.766;9.626;2023-09-08T01:53:44;6.47;;;5.80;;
12871;SDS011;6504;53.766;9.626;2023-09-08T01:56:12;6.90;;;6.40;;
12871;SDS011;6504;53.766;9.626;2023-09-08T01:58:40;7.90;;;7.20;;
12871;SDS011;6504;53.766;9.626;2023-09-08T02:01:10;7.90;;;7.10;;
12871;SDS011;6504;53.766;9.626;2023-09-08T02:03:38;7.17;;;6.57;;
12871;SDS011;6504;53.766;9.626;2023-09-08T02:06:06;7.43;;;6.73;;
12871;SDS011;6504;53.766;9.626;2023-09-08T02:08:34;8.30;;;7.50;;
12871;SDS011;6504;53.766;9.626;2023-09-08T02:11:02;7.00;;;6.40;;
12871;SDS011;6504;53.766;9.626;2023-09-08T02:13:30;7.97;;;7.17;;
12871;SDS011;6504;53.766;9.626;2023-09-08T02:15:58;7.40;;;6.80;;
12871;SDS011;6504;53.766;9.626;2023-09-08T02:18:28;7.53;;;6.90;;
12871;SDS011;6504;53.766;9.626;2023-09-08T02:20:56;7.47;;;6.80;;
12871;SDS011;6504;53.766;9.626;2023-09-08T02:23:24;7.40;;;6.80;;
12871;SDS011;6504;53.766;9.626;2023-09-08T02:25:52;7.20;;;6.60;;
12871;SDS011;6504;53.766;9.626;2023-09-08T02:28:21;8.83;;;6.73;;
12871;SDS011;6504;53.766;9.626;2023-09-08T02:30:49;7.47;;;6.80;;
12871;SDS011;6504;53.766;9.626;2023-09-08T02:33:17;7.30;;;6.70;;
12871;SDS011;6504;53.766;9.626;2023-09-08T02:35:46;6.80;;;6.20;;
12871;SDS011;6504;53.766;9.626;2023-09-08T02:38:14;7.43;;;6.73;;
12871;SDS011;6504;53.766;9.626;2023-09-08T02:40:42;7.37;;;6.73;;
12871;SDS011;6504;53.766;9.626;2023-09-08T02:43:10;6.83;;;6.23;;
12871;SDS011;6504;53.766;9.626;2023-09-08T02:45:38;6.83;;;6.33;;
12871;SDS011;6504;53.766;9.626;2023-09-08T02:48:06;7.30;;;6.70;;
12871;SDS011;6504;53.766;9.626;2023-09-08T02:50:34;6.43;;;5.93;;
12871;SDS011;6504;53.766;9.626;2023-09-08T02:53:04;7.20;;;6.57;;
12871;SDS011;6504;53.766;9.626;2023-09-08T02:55:32;7.53;;;6.63;;
12871;SDS011;6504;53.766;9.626;2023-09-08T02:58:00;7.50;;;6.87;;
12871;SDS011;6504;53.766;9.626;2023-09-08T03:00:28;6.73;;;6.23;;
12871;SDS011;6504;53.766;9.626;2023-09-08T03:02:56;7.40;;;6.70;;
12871;SDS011;6504;53.766;9.626;2023-09-08T03:05:24;6.40;;;5.90;;
12871;SDS011;6504;53.766;9.626;2023-09-08T03:07:52;6.90;;;6.40;;
12871;SDS011;6504;53.766;9.626;2023-09-08T03:10:21;8.13;;;7.43;;
12871;SDS011;6504;53.766;9.626;2023-09-08T03:12:49;8.70;;;7.77;;
12871;SDS011;6504;53.766;9.626;2023-09-08T03:15:17;7.27;;;6.67;;
12871;SDS011;6504;53.766;9.626;2023-09-08T03:17:45;8.17;;;7.47;;
12871;SDS011;6504;53.766;9.626;2023-09-08T03:20:13;7.50;;;6.90;;
12871;SDS011;6504;53.766;9.626;2023-09-08T03:22:41;7.77;;;6.97;;
12871;SDS011;6504;53.766;9.626;2023-09-08T03:25:09;8.03;;;7.27;;
12871;SDS011;6504;53.766;9.626;2023-09-08T03:27:39;8.00;;;7.30;;
12871;SDS011;6504;53.766;9.626;2023-09-08T03:30:07;7.60;;;6.90;;
12871;SDS011;6504;53.766;9.626;2023-09-08T03:32:35;8.03;;;7.33;;
12871;SDS011;6504;53.766;9.626;2023-09-08T03:35:04;7.63;;;7.03;;
12871;SDS011;6504;53.766;9.626;2023-09-08T03:37:34;8.30;;;7.53;;
12871;SDS011;6504;53.766;9.626;2023-09-08T03:40:02;8.70;;;7.67;;
12871;SDS011;6504;53.766;9.626;2023-09-08T03:42:33;7.73;;;7.03;;
12871;SDS011;6504;53.766;9.626;2023-09-08T03:45:03;7.87;;;7.27;;
12871;SDS011;6504;53.766;9.626;2023-09-08T03:47:32;7.83;;;7.03;;
12871;SDS011;6504;53.766;9.626;2023-09-08T03:50:00;8.07;;;7.27;;
12871;SDS011;6504;53.766;9.626;2023-09-08T03:52:28;7.67;;;7.07;;
12871;SDS011;6504;53.766;9.626;2023-09-08T03:54:56;7.67;;;6.97;;
12871;SDS011;6504;53.766;9.626;2023-09-08T03:57:24;8.30;;;7.60;;
12871;SDS011;6504;53.766;9.626;2023-09-08T03:59:53;7.07;;;6.47;;
12871;SDS011;6504;53.766;9.626;2023-09-08T04:02:22;7.57;;;6.93;;
12871;SDS011;6504;53.766;9.626;2023-09-08T04:04:50;7.30;;;6.60;;
12871;SDS011;6504;53.766;9.626;2023-09-08T04:07:18;8.37;;;7.57;;
12871;SDS011;6504;53.766;9.626;2023-09-08T04:09:46;6.80;;;6.27;;
12871;SDS011;6504;53.766;9.626;2023-09-08T04:12:14;7.80;;;7.13;;
12871;SDS011;6504;53.766;9.626;2023-09-08T04:14:42;8.27;;;7.57;;
12871;SDS011;6504;53.766;9.626;2023-09-08T04:17:10;8.33;;;7.63;;
12871;SDS011;6504;53.766;9.626;2023-09-08T04:19:39;7.63;;;7.03;;
12871;SDS011;6504;53.766;9.626;2023-09-08T04:22:07;7.90;;;7.10;;
12871;SDS011;6504;53.766;9.626;2023-09-08T04:24:35;7.57;;;6.97;;
12871;SDS011;6504;53.766;9.626;2023-09-08T04:27:04;9.33;;;8.53;;
12871;SDS011;6504;53.766;9.626;2023-09-08T04:29:32;7.83;;;7.00;;
12871;SDS011;6504;53.766;9.626;2023-09-08T04:32:00;7.80;;;7.07;;
12871;SDS011;6504;53.766;9.626;2023-09-08T04:34:35;8.27;;;7.47;;
12871;SDS011;6504;53.766;9.626;2023-09-08T04:37:05;8.03;;;7.40;;
12871;SDS011;6504;53.766;9.626;2023-09-08T04:39:34;8.00;;;7.30;;
12871;SDS011;6504;53.766;9.626;2023-09-08T04:42:03;8.27;;;7.50;;
12871;SDS011;6504;53.766;9.626;2023-09-08T04:44:32;9.03;;;8.20;;
12871;SDS011;6504;53.766;9.626;2023-09-08T04:47:00;7.70;;;7.00;;
12871;SDS011;6504;53.766;9.626;2023-09-08T04:49:28;8.00;;;7.30;;
12871;SDS011;6504;53.766;9.626;2023-09-08T04:51:57;7.60;;;6.90;;
12871;SDS011;6504;53.766;9.626;2023-09-08T04:54:26;8.17;;;7.37;;
12871;SDS011;6504;53.766;9.626;2023-09-08T04:56:55;8.67;;;7.80;;
12871;SDS011;6504;53.766;9.626;2023-09-08T04:59:43;8.03;;;7.33;;
12871;SDS011;6504;53.766;9.626;2023-09-08T05:02:11;7.97;;;7.27;;
12871;SDS011;6504;53.766;9.626;2023-09-08T05:04:40;7.80;;;7.20;;
12871;SDS011;6504;53.766;9.626;2023-09-08T05:07:08;7.47;;;6.77;;
12871;SDS011;6504;53.766;9.626;2023-09-08T05:09:40;8.80;;;8.00;;
12871;SDS011;6504;53.766;9.626;2023-09-08T05:12:08;8.47;;;7.70;;
12871;SDS011;6504;53.766;9.626;2023-09-08T05:14:36;7.87;;;7.07;;
12871;SDS011;6504;53.766;9.626;2023-09-08T05:17:04;8.70;;;7.90;;
12871;SDS011;6504;53.766;9.626;2023-09-08T05:19:32;8.40;;;7.63;;
12871;SDS011;6504;53.766;9.626;2023-09-08T05:22:00;9.10;;;8.30;;
12871;SDS011;6504;53.766;9.626;2023-09-08T05:24:28;8.43;;;7.80;;
12871;SDS011;6504;53.766;9.626;2023-09-08T05:26:58;7.70;;;7.10;;
12871;SDS011;6504;53.766;9.626;2023-09-08T05:29:26;8.87;;;8.00;;
12871;SDS011;6504;53.766;9.626;2023-09-08T05:31:54;10.03;;;8.50;;
12871;SDS011;6504;53.766;9.626;2023-09-08T05:34:22;8.47;;;7.67;;
12871;SDS011;6504;53.766;9.626;2023-09-08T05:36:49;9.00;;;8.23;;
12871;SDS011;6504;53.766;9.626;2023-09-08T05:39:18;8.97;;;8.20;;
12871;SDS011;6504;53.766;9.626;2023-09-08T05:41:46;8.90;;;8.17;;
12871;SDS011;6504;53.766;9.626;2023-09-08T05:44:15;8.03;;;7.40;;
12871;SDS011;6504;53.766;9.626;2023-09-08T05:46:43;9.30;;;8.40;;
12871;SDS011;6504;53.766;9.626;2023-09-08T05:49:11;9.63;;;7.87;;
12871;SDS011;6504;53.766;9.626;2023-09-08T05:51:40;8.70;;;7.90;;
12871;SDS011;6504;53.766;9.626;2023-09-08T05:54:08;7.80;;;7.10;;
12871;SDS011;6504;53.766;9.626;2023-09-08T05:56:36;8.47;;;7.77;;
12871;SDS011;6504;53.766;9.626;2023-09-08T05:59:05;8.67;;;7.97;;
12871;SDS011;6504;53.766;9.626;2023-09-08T06:01:36;8.90;;;8.00;;
12871;SDS011;6504;53.766;9.626;2023-09-08T06:04:04;8.70;;;7.90;;
12871;SDS011;6504;53.766;9.626;2023-09-08T06:06:33;9.13;;;8.20;;
12871;SDS011;6504;53.766;9.626;2023-09-08T06:09:01;9.33;;;8.47;;
12871;SDS011;6504;53.766;9.626;2023-09-08T06:11:29;8.40;;;7.50;;
12871;SDS011;6504;53.766;9.626;2023-09-08T06:13:57;10.03;;;9.03;;
12871;SDS011;6504;53.766;9.626;2023-09-08T06:16:26;9.73;;;8.83;;
12871;SDS011;6504;53.766;9.626;2023-09-08T06:18:55;9.37;;;8.50;;
12871;SDS011;6504;53.766;9.626;2023-09-08T06:21:24;9.70;;;8.80;;
12871;SDS011;6504;53.766;9.626;2023-09-08T06:23:52;9.47;;;8.63;;
12871;SDS011;6504;53.766;9.626;2023-09-08T06:26:20;9.47;;;8.60;;
12871;SDS011;6504;53.766;9.626;2023-09-08T06:28:48;8.80;;;8.00;;
12871;SDS011;6504;53.766;9.626;2023-09-08T06:31:16;9.67;;;8.77;;
12871;SDS011;6504;53.766;9.626;2023-09-08T06:33:44;9.63;;;8.73;;
12871;SDS011;6504;53.766;9.626;2023-09-08T06:36:13;9.70;;;8.80;;
12871;SDS011;6504;53.766;9.626;2023-09-08T06:38:42;9.27;;;8.47;;
12871;SDS011;6504;53.766;9.626;2023-09-08T06:41:10;9.60;;;8.73;;
12871;SDS011;6504;53.766;9.626;2023-09-08T06:43:39;8.97;;;8.07;;
12871;SDS011;6504;53.766;9.626;2023-09-08T06:46:07;9.30;;;8.20;;
12871;SDS011;6504;53.766;9.626;2023-09-08T06:48:35;9.70;;;8.57;;
12871;SDS011;6504;53.766;9.626;2023-09-08T06:51:04;9.53;;;8.63;;
12871;SDS011;6504;53.766;9.626;2023-09-08T06:53:33;9.33;;;8.57;;
12871;SDS011;6504;53.766;9.626;2023-09-08T06:56:01;9.70;;;8.53;;
12871;SDS011;6504;53.766;9.626;2023-09-08T06:58:29;9.13;;;8.33;;
12871;SDS011;6504;53.766;9.626;2023-09-08T07:00:58;8.77;;;7.97;;
12871;SDS011;6504;53.766;9.626;2023-09-08T07:03:26;8.80;;;8.07;;
12871;SDS011;6504;53.766;9.626;2023-09-08T07:05:54;9.20;;;8.30;;
12871;SDS011;6504;53.766;9.626;2023-09-08T07:08:22;8.53;;;7.73;;
12871;SDS011;6504;53.766;9.626;2023-09-08T07:10:52;10.03;;;9.10;;
12871;SDS011;6504;53.766;9.626;2023-09-08T07:13:21;8.77;;;8.03;;
12871;SDS011;6504;53.766;9.626;2023-09-08T07:15:49;8.87;;;8.00;;
12871;SDS011;6504;53.766;9.626;2023-09-08T07:18:17;8.77;;;7.97;;
12871;SDS011;6504;53.766;9.626;2023-09-08T07:20:46;9.57;;;8.67;;
12871;SDS011;6504;53.766;9.626;2023-09-08T07:23:16;9.10;;;8.20;;
12871;SDS011;6504;53.766;9.626;2023-09-08T07:25:47;8.73;;;7.93;;
12871;SDS011;6504;53.766;9.626;2023-09-08T07:28:18;9.77;;;8.77;;
12871;SDS011;6504;53.766;9.626;2023-09-08T07:30:49;8.63;;;7.77;;
12871;SDS011;6504;53.766;9.626;2023-09-08T07:33:22;9.30;;;8.40;;
12871;SDS011;6504;53.766;9.626;2023-09-08T07:35:51;9.03;;;8.23;;
12871;SDS011;6504;53.766;9.626;2023-09-08T07:38:19;8.80;;;8.00;;
12871;SDS011;6504;53.766;9.626;2023-09-08T07:40:48;9.10;;;8.20;;
12871;SDS011;6504;53.766;9.626;2023-09-08T07:43:21;8.67;;;7.87;;
12871;SDS011;6504;53.766;9.626;2023-09-08T07:45:49;11.13;;;8.03;;
12871;SDS011;6504;53.766;9.626;2023-09-08T07:48:17;8.77;;;7.90;;
12871;SDS011;6504;53.766;9.626;2023-09-08T07:50:51;8.47;;;7.67;;
12871;SDS011;6504;53.766;9.626;2023-09-08T07:53:43;8.87;;;8.07;;
12871;SDS011;6504;53.766;9.626;2023-09-08T07:56:20;9.50;;;7.93;;
12871;SDS011;6504;53.766;9.626;2023-09-08T07:59:15;11.20;;;7.97;;
12871;SDS011;6504;53.766;9.626;2023-09-08T08:02:06;9.30;;;8.50;;
12871;SDS011;6504;53.766;9.626;2023-09-08T08:05:01;9.70;;;8.10;;
12871;SDS011;6504;53.766;9.626;2023-09-08T08:10:59;8.83;;;7.93;;
12871;SDS011;6504;53.766;9.626;2023-09-08T08:17:04;8.73;;;7.87;;
12871;SDS011;6504;53.766;9.626;2023-09-08T08:19:51;8.20;;;7.27;;
12871;SDS011;6504;53.766;9.626;2023-09-08T08:22:41;8.77;;;7.90;;
12871;SDS011;6504;53.766;9.626;2023-09-08T08:26:03;8.50;;;7.67;;
12871;SDS011;6504;53.766;9.626;2023-09-08T08:28:43;9.13;;;7.40;;
12871;SDS011;6504;53.766;9.626;2023-09-08T08:31:40;8.37;;;7.50;;
12871;SDS011;6504;53.766;9.626;2023-09-08T08:34:20;8.00;;;7.20;;
12871;SDS011;6504;53.766;9.626;2023-09-08T08:37:10;9.97;;;7.73;;
12871;SDS011;6504;53.766;9.626;2023-09-08T08:40:04;8.90;;;7.97;;
12871;SDS011;6504;53.766;9.626;2023-09-08T08:42:39;8.33;;;7.40;;
12871;SDS011;6504;53.766;9.626;2023-09-08T08:45:08;7.57;;;6.87;;
12871;SDS011;6504;53.766;9.626;2023-09-08T08:47:37;9.80;;;7.53;;
12871;SDS011;6504;53.766;9.626;2023-09-08T08:50:08;7.90;;;7.10;;
12871;SDS011;6504;53.766;9.626;2023-09-08T08:52:38;8.57;;;7.77;;
12871;SDS011;6504;53.766;9.626;2023-09-08T08:55:07;8.37;;;6.83;;
12871;SDS011;6504;53.766;9.626;2023-09-08T08:57:36;9.53;;;7.27;;
12871;SDS011;6504;53.766;9.626;2023-09-08T09:00:05;7.97;;;7.27;;
12871;SDS011;6504;53.766;9.626;2023-09-08T09:02:38;7.47;;;6.77;;
12871;SDS011;6504;53.766;9.626;2023-09-08T09:05:09;7.67;;;6.97;;
12871;SDS011;6504;53.766;9.626;2023-09-08T09:07:39;7.73;;;7.03;;
12871;SDS011;6504;53.766;9.626;2023-09-08T09:10:09;8.63;;;7.00;;
12871;SDS011;6504;53.766;9.626;2023-09-08T09:12:37;7.73;;;7.00;;
12871;SDS011;6504;53.766;9.626;2023-09-08T09:15:06;7.37;;;6.67;;
12871;SDS011;6504;53.766;9.626;2023-09-08T09:17:35;7.43;;;6.73;;
12871;SDS011;6504;53.766;9.626;2023-09-08T09:20:12;7.50;;;6.77;;
12871;SDS011;6504;53.766;9.626;2023-09-08T09:22:43;7.40;;;6.60;;
12871;SDS011;6504;53.766;9.626;2023-09-08T09:25:20;7.23;;;6.63;;
12871;SDS011;6504;53.766;9.626;2023-09-08T09:27:50;8.07;;;7.20;;
12871;SDS011;6504;53.766;9.626;2023-09-08T09:30:20;7.67;;;6.40;;
12871;SDS011;6504;53.766;9.626;2023-09-08T09:32:48;7.13;;;6.43;;
12871;SDS011;6504;53.766;9.626;2023-09-08T09:35:40;7.13;;;6.40;;
12871;SDS011;6504;53.766;9.626;2023-09-08T09:38:08;7.07;;;6.37;;
12871;SDS011;6504;53.766;9.626;2023-09-08T09:40:37;7.77;;;7.07;;
12871;SDS011;6504;53.766;9.626;2023-09-08T09:43:06;7.80;;;6.33;;
12871;SDS011;6504;53.766;9.626;2023-09-08T09:45:35;9.77;;;6.93;;
12871;SDS011;6504;53.766;9.626;2023-09-08T09:48:04;11.90;;;6.63;;
12871;SDS011;6504;53.766;9.626;2023-09-08T09:50:34;8.37;;;6.70;;
12871;SDS011;6504;53.766;9.626;2023-09-08T09:53:09;8.10;;;6.30;;
12871;SDS011;6504;53.766;9.626;2023-09-08T09:55:39;7.63;;;6.60;;
12871;SDS011;6504;53.766;9.626;2023-09-08T09:58:09;8.23;;;6.53;;
12871;SDS011;6504;53.766;9.626;2023-09-08T10:00:38;7.10;;;6.40;;
12871;SDS011;6504;53.766;9.626;2023-09-08T10:03:07;9.13;;;6.63;;
12871;SDS011;6504;53.766;9.626;2023-09-08T10:05:37;8.30;;;6.53;;
12871;SDS011;6504;53.766;9.626;2023-09-08T10:08:05;6.57;;;5.73;;
12871;SDS011;6504;53.766;9.626;2023-09-08T10:10:35;8.23;;;6.53;;
12871;SDS011;6504;53.766;9.626;2023-09-08T10:13:05;6.77;;;6.13;;
12871;SDS011;6504;53.766;9.626;2023-09-08T10:15:34;7.17;;;6.57;;
12871;SDS011;6504;53.766;9.626;2023-09-08T10:18:04;7.73;;;6.07;;
12871;SDS011;6504;53.766;9.626;2023-09-08T10:20:33;6.80;;;6.20;;
12871;SDS011;6504;53.766;9.626;2023-09-08T10:23:04;10.77;;;6.17;;
12871;SDS011;6504;53.766;9.626;2023-09-08T10:25:39;6.77;;;6.10;;
12871;SDS011;6504;53.766;9.626;2023-09-08T10:28:12;6.70;;;6.00;;
12871;SDS011;6504;53.766;9.626;2023-09-08T10:30:40;7.77;;;6.13;;
12871;SDS011;6504;53.766;9.626;2023-09-08T10:33:09;6.97;;;6.23;;
12871;SDS011;6504;53.766;9.626;2023-09-08T10:35:38;6.40;;;5.80;;
12871;SDS011;6504;53.766;9.626;2023-09-08T10:38:23;7.53;;;6.37;;
12871;SDS011;6504;53.766;9.626;2023-09-08T10:41:18;7.10;;;6.40;;
12871;SDS011;6504;53.766;9.626;2023-09-08T10:43:56;6.50;;;5.93;;
12871;SDS011;6504;53.766;9.626;2023-09-08T10:46:27;6.70;;;6.07;;
12871;SDS011;6504;53.766;9.626;2023-09-08T10:49:00;6.77;;;6.10;;
12871;SDS011;6504;53.766;9.626;2023-09-08T10:51:30;6.43;;;5.83;;
12871;SDS011;6504;53.766;9.626;2023-09-08T10:53:58;6.67;;;5.97;;
12871;SDS011;6504;53.766;9.626;2023-09-08T10:56:46;6.13;;;5.20;;
12871;SDS011;6504;53.766;9.626;2023-09-08T10:59:16;7.27;;;5.57;;
12871;SDS011;6504;53.766;9.626;2023-09-08T11:01:46;6.20;;;5.60;;
12871;SDS011;6504;53.766;9.626;2023-09-08T11:04:15;7.23;;;5.43;;
12871;SDS011;6504;53.766;9.626;2023-09-08T11:06:45;6.07;;;5.47;;
12871;SDS011;6504;53.766;9.626;2023-09-08T11:09:13;6.10;;;5.60;;
12871;SDS011;6504;53.766;9.626;2023-09-08T11:11:44;6.70;;;5.33;;
12871;SDS011;6504;53.766;9.626;2023-09-08T11:14:12;7.73;;;5.30;;
12871;SDS011;6504;53.766;9.626;2023-09-08T11:16:41;6.67;;;5.50;;
12871;SDS011;6504;53.766;9.626;2023-09-08T11:19:10;6.43;;;5.60;;
12871;SDS011;6504;53.766;9.626;2023-09-08T11:21:39;6.40;;;5.17;;
12871;SDS011;6504;53.766;9.626;2023-09-08T11:24:08;6.80;;;5.50;;
12871;SDS011;6504;53.766;9.626;2023-09-08T11:26:37;6.07;;;5.37;;
12871;SDS011;6504;53.766;9.626;2023-09-08T11:29:07;6.37;;;5.10;;
12871;SDS011;6504;53.766;9.626;2023-09-08T11:31:37;6.87;;;5.20;;
12871;SDS011;6504;53.766;9.626;2023-09-08T11:34:05;7.90;;;5.27;;
12871;SDS011;6504;53.766;9.626;2023-09-08T11:36:34;6.70;;;5.10;;
12871;SDS011;6504;53.766;9.626;2023-09-08T11:39:04;6.30;;;5.27;;
12871;SDS011;6504;53.766;9.626;2023-09-08T11:41:33;10.43;;;5.73;;
12871;SDS011;6504;53.766;9.626;2023-09-08T11:44:03;7.13;;;4.90;;
12871;SDS011;6504;53.766;9.626;2023-09-08T11:46:33;9.23;;;5.17;;
12871;SDS011;6504;53.766;9.626;2023-09-08T11:49:03;12.13;;;5.40;;
12871;SDS011;6504;53.766;9.626;2023-09-08T11:51:32;10.10;;;5.60;;
12871;SDS011;6504;53.766;9.626;2023-09-08T11:54:00;7.50;;;5.10;;
12871;SDS011;6504;53.766;9.626;2023-09-08T11:56:28;8.23;;;5.40;;
12871;SDS011;6504;53.766;9.626;2023-09-08T11:58:59;7.20;;;5.00;;
12871;SDS011;6504;53.766;9.626;2023-09-08T12:01:27;5.43;;;4.93;;
12871;SDS011;6504;53.766;9.626;2023-09-08T12:03:57;6.03;;;5.07;;
12871;SDS011;6504;53.766;9.626;2023-09-08T12:06:25;5.87;;;5.30;;
12871;SDS011;6504;53.766;9.626;2023-09-08T12:08:55;6.13;;;4.50;;
12871;SDS011;6504;53.766;9.626;2023-09-08T12:11:25;5.77;;;4.83;;
12871;SDS011;6504;53.766;9.626;2023-09-08T12:14:01;6.60;;;5.27;;
12871;SDS011;6504;53.766;9.626;2023-09-08T12:16:29;5.17;;;4.67;;
12871;SDS011;6504;53.766;9.626;2023-09-08T12:18:59;5.23;;;4.80;;
12871;SDS011;6504;53.766;9.626;2023-09-08T12:21:27;5.67;;;4.73;;
12871;SDS011;6504;53.766;9.626;2023-09-08T12:23:56;5.70;;;5.10;;
12871;SDS011;6504;53.766;9.626;2023-09-08T12:26:24;5.80;;;5.20;;
12871;SDS011;6504;53.766;9.626;2023-09-08T12:28:52;6.73;;;5.40;;
12871;SDS011;6504;53.766;9.626;2023-09-08T12:31:22;5.70;;;5.20;;
12871;SDS011;6504;53.766;9.626;2023-09-08T12:33:50;5.67;;;4.87;;
12871;SDS011;6504;53.766;9.626;2023-09-08T12:36:21;5.47;;;4.97;;
12871;SDS011;6504;53.766;9.626;2023-09-08T12:38:50;6.63;;;5.35;;
12871;SDS011;6504;53.766;9.626;2023-09-08T12:41:19;7.27;;;5.40;;
12871;SDS011;6504;53.766;9.626;2023-09-08T12:43:47;6.10;;;5.50;;
12871;SDS011;6504;53.766;9.626;2023-09-08T12:46:16;5.70;;;5.20;;
12871;SDS011;6504;53.766;9.626;2023-09-08T12:48:45;7.47;;;5.10;;
12871;SDS011;6504;53.766;9.626;2023-09-08T12:51:13;7.23;;;5.50;;
12871;SDS011;6504;53.766;9.626;2023-09-08T12:53:43;5.78;;;5.18;;
12871;SDS011;6504;53.766;9.626;2023-09-08T12:56:11;7.40;;;5.47;;
12871;SDS011;6504;53.766;9.626;2023-09-08T12:58:39;5.70;;;5.10;;
12871;SDS011;6504;53.766;9.626;2023-09-08T13:01:07;5.50;;;5.00;;
12871;SDS011;6504;53.766;9.626;2023-09-08T13:03:35;5.60;;;5.10;;
12871;SDS011;6504;53.766;9.626;2023-09-08T13:06:03;6.07;;;5.38;;
12871;SDS011;6504;53.766;9.626;2023-09-08T13:08:31;6.85;;;5.13;;
12871;SDS011;6504;53.766;9.626;2023-09-08T13:11:01;6.93;;;5.10;;
12871;SDS011;6504;53.766;9.626;2023-09-08T13:13:29;6.68;;;5.43;;
12871;SDS011;6504;53.766;9.626;2023-09-08T13:15:57;5.60;;;5.00;;
12871;SDS011;6504;53.766;9.626;2023-09-08T13:18:25;5.60;;;5.05;;
12871;SDS011;6504;53.766;9.626;2023-09-08T13:20:53;6.95;;;5.18;;
12871;SDS011;6504;53.766;9.626;2023-09-08T13:23:21;5.90;;;5.40;;
12871;SDS011;6504;53.766;9.626;2023-09-08T13:25:49;5.72;;;5.20;;
12871;SDS011;6504;53.766;9.626;2023-09-08T13:28:19;6.20;;;5.20;;
12871;SDS011;6504;53.766;9.626;2023-09-08T13:30:47;5.27;;;4.77;;
12871;SDS011;6504;53.766;9.626;2023-09-08T13:33:15;5.07;;;4.57;;
12871;SDS011;6504;53.766;9.626;2023-09-08T13:35:43;5.97;;;5.18;;
12871;SDS011;6504;53.766;9.626;2023-09-08T13:38:11;6.30;;;5.10;;
12871;SDS011;6504;53.766;9.626;2023-09-08T13:40:39;5.03;;;4.63;;
12871;SDS011;6504;53.766;9.626;2023-09-08T13:43:08;5.30;;;4.80;;
12871;SDS011;6504;53.766;9.626;2023-09-08T13:45:38;5.43;;;4.93;;
12871;SDS011;6504;53.766;9.626;2023-09-08T13:48:09;5.38;;;4.88;;
12871;SDS011;6504;53.766;9.626;2023-09-08T13:50:38;5.80;;;4.43;;
12871;SDS011;6504;53.766;9.626;2023-09-08T13:53:09;5.57;;;4.38;;
12871;SDS011;6504;53.766;9.626;2023-09-08T13:55:40;4.88;;;4.45;;
12871;SDS011;6504;53.766;9.626;2023-09-08T13:58:10;4.60;;;4.20;;
12871;SDS011;6504;53.766;9.626;2023-09-08T14:00:41;4.32;;;3.85;;
12871;SDS011;6504;53.766;9.626;2023-09-08T14:03:11;5.80;;;4.10;;
12871;SDS011;6504;53.766;9.626;2023-09-08T14:05:46;6.15;;;4.05;;
12871;SDS011;6504;53.766;9.626;2023-09-08T14:08:20;4.85;;;4.00;;
12871;SDS011;6504;53.766;9.626;2023-09-08T14:11:07;4.88;;;4.40;;
12871;SDS011;6504;53.766;9.626;2023-09-08T14:13:49;4.28;;;3.88;;
12871;SDS011;6504;53.766;9.626;2023-09-08T14:16:19;4.47;;;4.18;;
12871;SDS011;6504;53.766;9.626;2023-09-08T14:18:47;4.60;;;4.20;;
12871;SDS011;6504;53.766;9.626;2023-09-08T14:21:15;4.68;;;4.28;;
12871;SDS011;6504;53.766;9.626;2023-09-08T14:23:43;4.35;;;3.95;;
12871;SDS011;6504;53.766;9.626;2023-09-08T14:26:11;4.05;;;3.75;;
12871;SDS011;6504;53.766;9.626;2023-09-08T14:28:39;5.18;;;4.28;;
12871;SDS011;6504;53.766;9.626;2023-09-08T14:31:07;4.68;;;4.20;;
12871;SDS011;6504;53.766;9.626;2023-09-08T14:33:37;4.85;;;4.43;;
12871;SDS011;6504;53.766;9.626;2023-09-08T14:36:05;4.90;;;3.90;;
12871;SDS011;6504;53.766;9.626;2023-09-08T14:38:34;4.32;;;3.92;;
12871;SDS011;6504;53.766;9.626;2023-09-08T14:41:02;4.30;;;3.95;;
12871;SDS011;6504;53.766;9.626;2023-09-08T14:43:30;5.03;;;4.47;;
12871;SDS011;6504;53.766;9.626;2023-09-08T14:45:59;4.93;;;4.10;;
12871;SDS011;6504;53.766;9.626;2023-09-08T14:48:29;4.43;;;4.10;;
12871;SDS011;6504;53.766;9.626;2023-09-08T14:50:59;6.70;;;4.38;;
12871;SDS011;6504;53.766;9.626;2023-09-08T14:53:28;4.40;;;3.92;;
12871;SDS011;6504;53.766;9.626;2023-09-08T14:55:57;5.63;;;4.10;;
12871;SDS011;6504;53.766;9.626;2023-09-08T14:58:25;4.82;;;4.10;;
12871;SDS011;6504;53.766;9.626;2023-09-08T15:00:58;6.03;;;4.00;;
12871;SDS011;6504;53.766;9.626;2023-09-08T15:03:30;4.32;;;3.92;;
12871;SDS011;6504;53.766;9.626;2023-09-08T15:06:01;4.55;;;4.15;;
12871;SDS011;6504;53.766;9.626;2023-09-08T15:08:29;4.47;;;4.18;;
12871;SDS011;6504;53.766;9.626;2023-09-08T15:10:57;4.35;;;3.95;;
12871;SDS011;6504;53.766;9.626;2023-09-08T15:13:25;4.72;;;4.30;;
12871;SDS011;6504;53.766;9.626;2023-09-08T15:15:53;4.95;;;4.07;;
12871;SDS011;6504;53.766;9.626;2023-09-08T15:18:21;4.40;;;4.00;;
12871;SDS011;6504;53.766;9.626;2023-09-08T15:20:52;4.90;;;4.40;;
12871;SDS011;6504;53.766;9.626;2023-09-08T15:23:22;4.85;;;4.10;;
12871;SDS011;6504;53.766;9.626;2023-09-08T15:25:50;4.05;;;3.75;;